createdAt,value
2022-08-30T00:02:27.071Z,0.77
2022-08-30T00:04:55.702Z,1.63
2022-08-30T00:07:25.268Z,1.13
2022-08-30T00:09:53.638Z,1.25
2022-08-30T00:12:22.202Z,0.82
2022-08-30T00:14:50.915Z,0.90
2022-08-30T00:17:20.040Z,0.80
2022-08-30T00:19:49.804Z,0.90
2022-08-30T00:22:18.186Z,0.80
2022-08-30T00:24:46.598Z,0.82
2022-08-30T00:27:15.002Z,0.98
2022-08-30T00:29:43.356Z,0.95
2022-08-30T00:32:12.507Z,0.50
2022-08-30T00:34:40.939Z,1.30
2022-08-30T00:37:10.761Z,0.93
2022-08-30T00:39:39.128Z,0.57
2022-08-30T00:42:07.788Z,0.75
2022-08-30T00:44:36.320Z,0.85
2022-08-30T00:47:05.133Z,0.82
2022-08-30T00:49:35.224Z,1.10
2022-08-30T00:52:03.997Z,0.90
2022-08-30T00:54:36.091Z,1.23
2022-08-30T00:57:04.757Z,1.05
2022-08-30T00:59:34.102Z,1.17
2022-08-30T01:02:03.483Z,0.80
2022-08-30T01:04:32.766Z,0.80
2022-08-30T01:07:01.564Z,0.80
2022-08-30T01:09:30.078Z,0.77
2022-08-30T01:12:00.063Z,1.00
2022-08-30T01:14:28.683Z,0.65
2022-08-30T01:16:57.948Z,0.95
2022-08-30T01:19:32.442Z,0.60
2022-08-30T01:22:05.439Z,0.65
2022-08-30T01:24:35.651Z,1.15
2022-08-30T01:27:04.066Z,0.95
2022-08-30T01:29:32.499Z,0.80
2022-08-30T01:32:01.006Z,0.70
2022-08-30T01:34:29.421Z,1.10
2022-08-30T01:36:57.881Z,1.08
2022-08-30T01:39:26.459Z,1.27
2022-08-30T01:41:56.589Z,0.82
2022-08-30T01:44:25.055Z,1.10
2022-08-30T01:46:53.508Z,1.52
2022-08-30T01:49:23.117Z,1.17
2022-08-30T01:52:00.844Z,0.57
2022-08-30T01:54:36.636Z,0.57
2022-08-30T01:57:08.811Z,0.52
2022-08-30T01:59:37.738Z,1.20
2022-08-30T02:02:06.520Z,0.80
2022-08-30T02:04:36.772Z,0.77
2022-08-30T02:07:05.709Z,0.68
2022-08-30T02:09:34.250Z,0.60
2022-08-30T02:12:02.767Z,0.50
2022-08-30T02:14:32.933Z,0.88
2022-08-30T02:17:02.414Z,0.85
2022-08-30T02:19:31.124Z,0.63
2022-08-30T02:21:59.604Z,0.55
2022-08-30T02:24:28.484Z,0.60
2022-08-30T02:26:56.932Z,0.88
2022-08-30T02:29:25.518Z,0.60
2022-08-30T02:31:55.328Z,1.02
2022-08-30T02:34:23.768Z,0.80
2022-08-30T02:36:52.368Z,1.08
2022-08-30T02:39:20.801Z,0.60
2022-08-30T02:41:49.262Z,1.25
2022-08-30T02:44:17.826Z,0.68
2022-08-30T02:46:46.782Z,1.10
2022-08-30T02:49:33.300Z,0.90
2022-08-30T02:52:02.745Z,0.85
2022-08-30T02:54:33.357Z,0.55
2022-08-30T02:57:05.265Z,0.82
2022-08-30T02:59:34.231Z,0.77
2022-08-30T03:02:02.642Z,0.50
2022-08-30T03:04:32.577Z,0.65
2022-08-30T03:07:01.051Z,1.35
2022-08-30T03:09:29.712Z,0.98
2022-08-30T03:11:58.232Z,0.90
2022-08-30T03:14:26.682Z,0.82
2022-08-30T03:16:55.402Z,1.15
2022-08-30T03:19:24.966Z,0.32
2022-08-30T03:21:54.790Z,0.60
2022-08-30T03:24:23.234Z,0.70
2022-08-30T03:26:51.589Z,1.17
2022-08-30T03:29:19.950Z,1.98
2022-08-30T03:31:52.622Z,0.77
2022-08-30T03:34:21.987Z,0.73
2022-08-30T03:36:50.470Z,0.73
2022-08-30T03:39:20.294Z,0.93
2022-08-30T03:41:48.832Z,1.40
2022-08-30T03:44:17.202Z,0.70
2022-08-30T03:46:45.616Z,0.70
2022-08-30T03:49:13.971Z,0.52
2022-08-30T03:51:42.405Z,0.77
2022-08-30T03:54:11.025Z,0.68
2022-08-30T03:56:41.084Z,0.63
2022-08-30T03:59:09.425Z,0.80
2022-08-30T04:01:37.795Z,0.85
2022-08-30T04:04:06.251Z,0.75
2022-08-30T04:06:34.655Z,0.52
2022-08-30T04:09:03.030Z,0.80
2022-08-30T04:11:31.462Z,0.68
2022-08-30T04:14:01.163Z,0.73
2022-08-30T04:16:29.641Z,1.17
2022-08-30T04:18:58.089Z,0.52
2022-08-30T04:21:26.463Z,0.70
2022-08-30T04:23:54.856Z,0.50
2022-08-30T04:26:23.208Z,0.40
2022-08-30T04:28:56.219Z,0.75
2022-08-30T04:31:27.355Z,0.85
2022-08-30T04:33:56.062Z,0.65
2022-08-30T04:36:24.446Z,0.43
2022-08-30T04:38:52.787Z,0.52
2022-08-30T04:41:22.694Z,0.50
2022-08-30T04:43:51.520Z,0.82
2022-08-30T04:46:20.436Z,0.82
2022-08-30T04:48:50.861Z,1.05
2022-08-30T04:51:19.602Z,0.47
2022-08-30T04:53:48.128Z,0.77
2022-08-30T04:56:17.525Z,0.80
2022-08-30T04:58:45.951Z,1.27
2022-08-30T05:01:15.157Z,0.98
2022-08-30T05:03:49.786Z,0.85
2022-08-30T05:06:18.676Z,0.60
2022-08-30T05:08:47.512Z,0.68
2022-08-30T05:11:16.567Z,0.80
2022-08-30T05:13:45.209Z,0.65
2022-08-30T05:16:17.828Z,0.35
2022-08-30T05:18:46.458Z,0.43
2022-08-30T05:21:17.344Z,0.50
2022-08-30T05:23:46.105Z,1.00
2022-08-30T05:26:15.369Z,0.77
2022-08-30T05:28:44.221Z,0.60
2022-08-30T05:31:16.839Z,0.82
2022-08-30T05:33:45.386Z,0.70
2022-08-30T05:36:15.161Z,0.90
2022-08-30T05:38:44.881Z,1.00
2022-08-30T05:41:13.887Z,0.90
2022-08-30T05:43:42.916Z,1.00
2022-08-30T05:46:12.268Z,0.47
2022-08-30T05:48:41.118Z,0.75
2022-08-30T05:51:11.388Z,1.20
2022-08-30T05:53:40.300Z,0.50
2022-08-30T05:56:11.767Z,0.73
2022-08-30T05:58:40.450Z,0.57
2022-08-30T06:01:09.265Z,0.57
2022-08-30T06:03:37.712Z,0.55
2022-08-30T06:06:09.217Z,0.40
2022-08-30T06:08:37.594Z,0.85
2022-08-30T06:11:10.638Z,1.17
2022-08-30T06:13:39.084Z,0.93
2022-08-30T06:16:12.399Z,0.77
2022-08-30T06:18:41.214Z,0.65
2022-08-30T06:21:13.380Z,1.00
2022-08-30T06:23:44.679Z,1.15
2022-08-30T06:26:14.430Z,1.58
2022-08-30T06:28:42.929Z,1.08
2022-08-30T06:31:12.318Z,1.10
2022-08-30T06:33:40.968Z,0.70
2022-08-30T06:36:11.110Z,0.80
2022-08-30T06:38:40.380Z,0.65
2022-08-30T06:41:09.139Z,1.42
2022-08-30T06:43:39.102Z,1.10
2022-08-30T06:46:12.867Z,1.25
2022-08-30T06:48:43.055Z,1.35
2022-08-30T06:51:13.576Z,0.80
2022-08-30T06:53:42.500Z,1.35
2022-08-30T06:56:16.478Z,1.25
2022-08-30T06:58:46.807Z,0.88
2022-08-30T07:01:15.848Z,1.67
2022-08-30T07:03:44.219Z,1.30
2022-08-30T07:06:13.526Z,1.35
2022-08-30T07:08:42.159Z,0.80
2022-08-30T07:11:10.745Z,1.40
2022-08-30T07:13:39.702Z,1.85
2022-08-30T07:16:13.349Z,1.35
2022-08-30T07:18:55.803Z,1.00
2022-08-30T07:21:26.454Z,1.20
2022-08-30T07:23:55.652Z,1.73
2022-08-30T07:26:25.361Z,1.75
2022-08-30T07:28:56.006Z,1.73
2022-08-30T07:31:26.532Z,1.58
2022-08-30T07:33:55.039Z,1.42
2022-08-30T07:36:24.049Z,1.48
2022-08-30T07:38:52.686Z,1.75
2022-08-30T07:41:22.256Z,1.80
2022-08-30T07:43:50.703Z,1.33
2022-08-30T07:46:19.304Z,2.15
2022-08-30T07:48:49.368Z,1.40
2022-08-30T07:51:19.069Z,1.40
2022-08-30T07:53:47.924Z,1.55
2022-08-30T07:56:16.484Z,1.75
2022-08-30T07:58:44.903Z,1.90
2022-08-30T08:01:14.672Z,1.52
2022-08-30T08:03:44.098Z,1.33
2022-08-30T08:06:15.181Z,1.50
2022-08-30T08:08:45.367Z,1.25
2022-08-30T08:11:16.191Z,1.70
2022-08-30T08:13:53.939Z,2.08
2022-08-30T08:16:23.938Z,1.90
2022-08-30T08:18:53.878Z,2.42
2022-08-30T08:21:24.331Z,1.55
2022-08-30T08:23:53.213Z,1.65
2022-08-30T08:26:22.161Z,1.77
2022-08-30T08:28:50.685Z,2.42
2022-08-30T08:31:20.128Z,1.52
2022-08-30T08:33:48.834Z,1.83
2022-08-30T08:36:18.563Z,2.33
2022-08-30T08:38:48.390Z,2.05
2022-08-30T08:41:25.166Z,2.08
2022-08-30T08:43:53.593Z,1.92
2022-08-30T08:46:28.021Z,1.90
2022-08-30T08:49:00.557Z,1.33
2022-08-30T08:51:44.110Z,1.48
2022-08-30T08:54:15.593Z,1.90
2022-08-30T08:56:44.120Z,1.38
2022-08-30T08:59:13.441Z,1.40
2022-08-30T09:01:41.883Z,1.63
2022-08-30T09:04:12.132Z,1.75
2022-08-30T09:06:45.496Z,1.75
2022-08-30T09:09:15.783Z,2.05
2022-08-30T09:11:44.666Z,1.73
2022-08-30T09:14:15.554Z,1.40
2022-08-30T09:16:55.922Z,1.77
2022-08-30T09:19:42.665Z,1.30
2022-08-30T09:22:21.771Z,1.65
2022-08-30T09:24:52.449Z,1.67
2022-08-30T09:27:24.054Z,1.88
2022-08-30T09:29:53.871Z,2.00
2022-08-30T09:32:30.526Z,1.40
2022-08-30T09:34:59.414Z,1.55
2022-08-30T09:37:32.848Z,1.42
2022-08-30T09:40:02.760Z,1.33
2022-08-30T09:42:31.773Z,1.90
2022-08-30T09:45:11.673Z,1.20
2022-08-30T09:47:41.867Z,1.17
2022-08-30T09:50:11.454Z,1.33
2022-08-30T09:52:44.196Z,1.15
2022-08-30T09:55:20.723Z,1.58
2022-08-30T09:57:56.080Z,1.17
2022-08-30T10:00:28.317Z,1.88
2022-08-30T10:03:05.474Z,1.70
2022-08-30T10:05:37.889Z,1.35
2022-08-30T10:08:12.781Z,1.30
2022-08-30T10:10:45.985Z,1.83
2022-08-30T10:13:23.861Z,1.63
2022-08-30T10:15:55.314Z,1.90
2022-08-30T10:18:28.109Z,1.30
2022-08-30T10:21:02.353Z,1.30
2022-08-30T10:23:32.207Z,1.73
2022-08-30T10:26:09.209Z,1.50
2022-08-30T10:28:39.842Z,1.80
2022-08-30T10:31:11.165Z,1.02
2022-08-30T10:33:41.133Z,1.25
2022-08-30T10:36:11.878Z,1.23
2022-08-30T10:38:41.599Z,1.17
2022-08-30T10:41:14.855Z,1.33
2022-08-30T10:43:50.923Z,1.15
2022-08-30T10:46:21.836Z,1.25
2022-08-30T10:48:50.225Z,1.33
2022-08-30T10:51:22.190Z,1.42
2022-08-30T10:53:53.242Z,0.98
2022-08-30T10:56:26.228Z,1.23
2022-08-30T10:58:55.385Z,1.48
2022-08-30T11:01:29.203Z,1.13
2022-08-30T11:04:14.289Z,1.25
2022-08-30T11:06:45.025Z,1.40
2022-08-30T11:09:20.196Z,1.20
2022-08-30T11:11:59.558Z,1.15
2022-08-30T11:14:28.517Z,1.08
2022-08-30T11:16:58.069Z,1.45
2022-08-30T11:19:32.379Z,1.20
2022-08-30T11:22:13.197Z,1.17
2022-08-30T11:24:56.563Z,1.13
2022-08-30T11:27:40.032Z,1.40
2022-08-30T11:30:23.308Z,1.30
2022-08-30T11:33:03.312Z,1.25
2022-08-30T11:35:48.143Z,1.15
2022-08-30T11:38:21.467Z,1.50
2022-08-30T11:40:51.725Z,1.92
2022-08-30T11:43:40.381Z,1.77
2022-08-30T11:46:16.183Z,1.83
2022-08-30T11:48:54.469Z,1.40
2022-08-30T11:52:08.429Z,1.27
2022-08-30T11:54:39.511Z,1.67
2022-08-30T11:57:12.397Z,1.65
2022-08-30T11:59:48.303Z,1.77
2022-08-30T12:02:31.645Z,1.77
2022-08-30T12:05:01.839Z,1.60
2022-08-30T12:07:45.091Z,1.13
2022-08-30T12:10:22.981Z,1.48
2022-08-30T12:12:57.726Z,1.67
2022-08-30T12:15:43.965Z,1.95
2022-08-30T12:18:29.247Z,1.40
2022-08-30T12:21:10.350Z,1.30
2022-08-30T12:23:44.628Z,1.60
2022-08-30T12:26:20.206Z,1.30
2022-08-30T12:28:51.029Z,2.10
2022-08-30T12:31:21.209Z,1.52
2022-08-30T12:33:51.784Z,1.50
2022-08-30T12:36:34.737Z,1.45
2022-08-30T12:39:07.354Z,1.10
2022-08-30T12:41:36.055Z,1.40
2022-08-30T12:44:15.379Z,1.23
2022-08-30T12:46:44.075Z,1.30
2022-08-30T12:49:15.090Z,1.05
2022-08-30T12:51:45.306Z,1.10
2022-08-30T12:54:18.830Z,1.55
2022-08-30T12:56:51.791Z,1.47
2022-08-30T12:59:38.856Z,1.20
2022-08-30T13:02:20.540Z,1.02
2022-08-30T13:04:50.713Z,1.20
2022-08-30T13:07:30.922Z,1.70
2022-08-30T13:10:03.481Z,1.20
2022-08-30T13:12:32.211Z,1.42
2022-08-30T13:15:18.315Z,1.38
2022-08-30T13:17:48.530Z,1.10
2022-08-30T13:20:24.833Z,1.27
2022-08-30T13:23:05.569Z,1.05
2022-08-30T13:25:34.020Z,1.30
2022-08-30T13:28:03.062Z,1.20
2022-08-30T13:30:31.533Z,1.40
2022-08-30T13:33:01.301Z,1.40
2022-08-30T13:35:31.604Z,1.10
2022-08-30T13:38:01.856Z,1.35
2022-08-30T13:40:31.688Z,1.50
2022-08-30T13:43:00.192Z,1.55
2022-08-30T13:45:44.190Z,1.10
2022-08-30T13:48:13.582Z,0.97
2022-08-30T13:50:42.966Z,1.40
2022-08-30T13:53:11.579Z,1.17
2022-08-30T13:55:43.348Z,0.98
2022-08-30T13:58:13.796Z,1.10
2022-08-30T14:00:42.355Z,1.48
2022-08-30T14:03:12.203Z,1.05
2022-08-30T14:05:50.679Z,0.93
2022-08-30T14:11:16.089Z,1.20
2022-08-30T14:16:37.506Z,1.08
2022-08-30T14:19:06.475Z,1.17
2022-08-30T14:21:36.073Z,1.10
2022-08-30T14:24:06.726Z,1.60
2022-08-30T14:26:38.694Z,1.00
2022-08-30T14:29:09.927Z,1.10
2022-08-30T14:31:39.362Z,1.50
2022-08-30T14:34:08.514Z,1.30
2022-08-30T14:36:37.925Z,1.08
2022-08-30T14:39:09.028Z,0.90
2022-08-30T14:41:43.919Z,1.55
2022-08-30T14:44:12.605Z,1.20
2022-08-30T14:46:41.180Z,1.05
2022-08-30T14:49:10.247Z,1.10
2022-08-30T14:51:39.920Z,1.05
2022-08-30T14:54:08.643Z,1.17
2022-08-30T14:56:38.539Z,0.90
2022-08-30T14:59:08.448Z,1.27
2022-08-30T15:01:37.500Z,1.02
2022-08-30T15:04:07.480Z,1.20
2022-08-30T15:06:36.650Z,1.63
2022-08-30T15:09:06.373Z,1.00
2022-08-30T15:11:34.828Z,1.15
2022-08-30T15:14:03.581Z,1.13
2022-08-30T15:16:34.922Z,1.05
2022-08-30T15:19:03.923Z,0.77
2022-08-30T15:21:33.715Z,1.30
2022-08-30T15:24:03.236Z,1.30
2022-08-30T15:26:31.591Z,0.98
2022-08-30T15:29:01.008Z,1.30
2022-08-30T15:31:31.128Z,0.73
2022-08-30T15:34:00.996Z,1.30
2022-08-30T15:36:30.263Z,1.20
2022-08-30T15:39:00.049Z,1.10
2022-08-30T15:41:28.943Z,1.85
2022-08-30T15:43:57.452Z,1.00
2022-08-30T15:46:29.944Z,1.50
2022-08-30T15:49:01.496Z,1.17
2022-08-30T15:51:30.842Z,1.05
2022-08-30T15:54:10.281Z,1.15
2022-08-30T15:56:40.419Z,1.08
2022-08-30T15:59:10.811Z,1.08
2022-08-30T16:01:39.410Z,0.88
2022-08-30T16:04:09.331Z,0.93
2022-08-30T16:06:39.678Z,1.10
2022-08-30T16:09:10.910Z,1.27
2022-08-30T16:11:39.886Z,1.63
2022-08-30T16:14:08.821Z,0.88
2022-08-30T16:16:38.070Z,1.45
2022-08-30T16:19:10.450Z,1.00
2022-08-30T16:21:39.905Z,1.38
2022-08-30T16:24:10.738Z,1.10
2022-08-30T16:26:43.182Z,1.38
2022-08-30T16:29:12.415Z,1.13
2022-08-30T16:31:42.150Z,1.10
2022-08-30T16:34:12.079Z,1.60
2022-08-30T16:36:40.793Z,1.23
2022-08-30T16:39:10.248Z,1.00
2022-08-30T16:41:39.474Z,1.13
2022-08-30T16:44:08.478Z,1.20
2022-08-30T16:46:37.612Z,1.17
2022-08-30T16:49:08.767Z,0.90
2022-08-30T16:51:39.954Z,1.15
2022-08-30T16:54:08.910Z,0.98
2022-08-30T16:56:38.404Z,1.10
2022-08-30T16:59:11.076Z,1.60
2022-08-30T17:01:42.330Z,0.95
2022-08-30T17:07:02.080Z,1.00
2022-08-30T17:09:30.911Z,1.70
2022-08-30T17:11:59.553Z,0.80
2022-08-30T17:14:29.340Z,1.50
2022-08-30T17:16:58.100Z,1.40
2022-08-30T17:19:28.913Z,1.00
2022-08-30T17:21:58.427Z,0.95
2022-08-30T17:24:28.867Z,0.93
2022-08-30T17:26:58.350Z,1.25
2022-08-30T17:29:26.930Z,0.90
2022-08-30T17:31:55.536Z,1.25
2022-08-30T17:34:26.484Z,0.68
2022-08-30T17:36:57.315Z,1.55
2022-08-30T17:39:26.144Z,1.58
2022-08-30T17:41:56.389Z,1.23
2022-08-30T17:44:28.443Z,1.30
2022-08-30T17:46:57.745Z,0.82
2022-08-30T17:49:27.299Z,1.58
2022-08-30T17:51:57.147Z,1.08
2022-08-30T17:54:26.847Z,0.85
2022-08-30T17:56:57.228Z,1.45
2022-08-30T17:59:26.771Z,1.33
2022-08-30T18:02:00.308Z,0.93
2022-08-30T18:04:28.792Z,1.00
2022-08-30T18:06:57.569Z,1.33
2022-08-30T18:09:29.402Z,1.15
2022-08-30T18:12:01.911Z,1.00
2022-08-30T18:14:30.649Z,1.35
2022-08-30T18:16:59.376Z,1.20
2022-08-30T18:19:28.502Z,1.35
2022-08-30T18:21:57.518Z,1.42
2022-08-30T18:24:26.593Z,1.05
2022-08-30T18:26:56.274Z,1.30
2022-08-30T18:29:30.447Z,1.30
2022-08-30T18:32:00.244Z,1.55
2022-08-30T18:34:29.064Z,1.58
2022-08-30T18:36:57.746Z,1.20
2022-08-30T18:39:26.799Z,2.20
2022-08-30T18:41:55.742Z,1.52
2022-08-30T18:47:15.752Z,2.10
2022-08-30T18:49:45.132Z,1.98
2022-08-30T18:52:13.631Z,2.03
2022-08-30T18:54:47.299Z,1.30
2022-08-30T18:57:20.385Z,1.05
2022-08-30T18:59:50.464Z,2.00
2022-08-30T19:02:19.454Z,1.83
2022-08-30T19:04:49.335Z,1.77
2022-08-30T19:07:20.364Z,1.20
2022-08-30T19:09:51.303Z,1.38
2022-08-30T19:12:21.079Z,1.95
2022-08-30T19:14:51.037Z,1.67
2022-08-30T19:17:21.553Z,1.73
2022-08-30T19:19:52.201Z,1.58
2022-08-30T19:23:06.320Z,1.40
2022-08-30T19:25:28.038Z,1.65
2022-08-30T19:27:57.553Z,2.20
2022-08-30T19:30:29.746Z,1.23
2022-08-30T19:32:59.307Z,1.30
2022-08-30T19:35:30.217Z,1.20
2022-08-30T19:37:59.484Z,1.10
2022-08-30T19:40:28.039Z,0.80
2022-08-30T19:42:56.836Z,1.00
2022-08-30T19:45:27.266Z,1.80
2022-08-30T19:47:57.805Z,1.42
2022-08-30T19:50:26.366Z,1.20
2022-08-30T19:52:55.317Z,1.33
2022-08-30T19:58:13.046Z,1.42
2022-08-30T20:00:55.941Z,1.30
2022-08-30T20:03:29.957Z,1.90
2022-08-30T20:05:59.091Z,1.58
2022-08-30T20:08:27.617Z,2.55
2022-08-30T20:10:56.027Z,3.35
2022-08-30T20:13:24.824Z,4.32
2022-08-30T20:15:56.249Z,4.40
2022-08-30T20:18:26.200Z,4.50
2022-08-30T20:20:55.250Z,5.03
2022-08-30T20:23:25.481Z,5.10
2022-08-30T20:24:23.986Z,1.25
2022-08-30T20:24:29.335Z,1.45
2022-08-30T20:25:55.640Z,3.47
2022-08-30T20:28:24.625Z,4.50
2022-08-30T20:30:53.285Z,2.88
2022-08-30T20:33:23.646Z,2.78
2022-08-30T20:35:52.548Z,3.15
2022-08-30T20:38:21.943Z,2.58
2022-08-30T20:40:51.633Z,2.85
2022-08-30T20:43:20.506Z,2.28
2022-08-30T20:45:49.243Z,2.13
2022-08-30T20:48:18.358Z,2.75
2022-08-30T20:50:48.419Z,2.15
2022-08-30T20:53:17.115Z,2.15
2022-08-30T20:55:46.531Z,2.28
2022-08-30T20:58:15.472Z,1.70
2022-08-30T21:00:45.662Z,2.58
2022-08-30T21:03:25.824Z,1.38
2022-08-30T21:05:57.279Z,1.73
2022-08-30T21:08:26.187Z,1.55
2022-08-30T21:10:55.045Z,2.80
2022-08-30T21:13:23.491Z,2.08
2022-08-30T21:15:52.771Z,2.22
2022-08-30T21:18:23.366Z,2.38
2022-08-30T21:20:51.773Z,2.55
2022-08-30T21:23:21.539Z,2.58
2022-08-30T21:25:50.354Z,2.05
2022-08-30T21:28:18.999Z,2.33
2022-08-30T21:30:47.603Z,1.80
2022-08-30T21:33:16.104Z,1.95
2022-08-30T21:36:02.268Z,1.60
2022-08-30T21:38:31.997Z,1.85
2022-08-30T21:41:00.413Z,1.58
2022-08-30T21:43:28.827Z,1.88
2022-08-30T21:45:57.216Z,1.30
2022-08-30T21:48:25.619Z,2.35
2022-08-30T21:50:55.274Z,2.20
2022-08-30T21:53:23.618Z,1.63
2022-08-30T21:55:53.486Z,0.85
2022-08-30T21:58:22.136Z,1.20
2022-08-30T22:00:50.511Z,1.65
2022-08-30T22:03:18.980Z,1.13
2022-08-30T22:05:52.335Z,1.33
2022-08-30T22:08:20.740Z,0.68
2022-08-30T22:10:49.101Z,1.88
2022-08-30T22:13:19.329Z,1.25
2022-08-30T22:15:48.366Z,1.50
2022-08-30T22:18:16.896Z,1.20
2022-08-30T22:20:46.564Z,1.33
2022-08-30T22:23:18.854Z,1.40
2022-08-30T22:25:47.378Z,1.27
2022-08-30T22:28:16.033Z,1.40
2022-08-30T22:30:45.718Z,1.42
2022-08-30T22:33:14.138Z,1.13
2022-08-30T22:35:42.956Z,1.15
2022-08-30T22:38:11.383Z,1.10
2022-08-30T22:40:45.082Z,1.45
2022-08-30T22:43:13.492Z,1.67
2022-08-30T22:45:41.924Z,0.98
2022-08-30T22:48:11.965Z,1.30
2022-08-30T22:50:40.409Z,1.25
2022-08-30T22:53:09.037Z,1.95
2022-08-30T22:55:37.421Z,1.13
2022-08-30T22:58:05.979Z,1.30
2022-08-30T23:00:34.405Z,1.23
2022-08-30T23:03:02.752Z,1.23
2022-08-30T23:05:32.567Z,1.25
2022-08-30T23:08:01.582Z,1.63
2022-08-30T23:10:29.909Z,1.02
2022-08-30T23:12:58.851Z,1.80
2022-08-30T23:15:28.060Z,1.42
2022-08-30T23:17:56.660Z,1.40
2022-08-30T23:20:25.262Z,2.03
2022-08-30T23:23:00.088Z,0.95
2022-08-30T23:25:47.490Z,1.90
2022-08-30T23:28:38.598Z,1.33
2022-08-30T23:31:28.297Z,1.08
2022-08-30T23:34:14.394Z,1.45
2022-08-30T23:37:00.590Z,1.13
2022-08-30T23:39:48.491Z,1.30
2022-08-30T23:42:34.631Z,1.13
2022-08-30T23:45:20.714Z,1.55
2022-08-30T23:48:06.927Z,1.35
2022-08-30T23:50:53.021Z,1.10
2022-08-30T23:53:39.021Z,1.33
2022-08-30T23:56:31.300Z,1.58
2022-08-30T23:59:17.182Z,1.80
